Time;durP1;ratioP1;P1;durP2;ratioP2;P2;SDS_P1;SDS_P2;PMS_P1;PMS_P2;Temp;Humidity;BMP_temperature;BMP_pressure;BME280_temperature;BME280_humidity;BME280_pressure;Samples;Min_cycle;Max_cycle;Signal;HPM_P1;HPM_P2
2022/12/13 00:01:15;;;;;;;17.90;11.80;;;1.90;1.00;;;;;;5102637;28;20177;-77
2022/12/13 00:03:42;;;;;;;16.97;11.87;;;1.80;1.00;;;;;;5119066;28;20256;-78
2022/12/13 00:06:11;;;;;;;18.47;11.67;;;1.90;1.00;;;;;;5121681;28;20281;-78
2022/12/13 00:08:37;;;;;;;18.57;12.67;;;2.00;1.00;;;;;;5111494;28;20167;-81
2022/12/13 00:11:06;;;;;;;20.07;11.93;;;2.10;1.00;;;;;;5132532;28;20151;-78
2022/12/13 00:13:34;;;;;;;18.83;12.47;;;2.10;1.00;;;;;;5127220;28;20211;-80
2022/12/13 00:16:03;;;;;;;19.97;13.37;;;2.00;1.00;;;;;;5132125;28;20205;-77
2022/12/13 00:18:35;;;;;;;23.33;13.80;;;1.70;1.00;;;;;;5132514;28;20159;-79
2022/12/13 00:21:05;;;;;;;20.23;14.60;;;1.60;10.20;;;;;;5132869;28;20163;-82
2022/12/13 00:23:37;;;;;;;25.33;15.00;;;1.60;11.70;;;;;;5119347;28;20163;-83
2022/12/13 00:26:05;;;;;;;20.87;14.70;;;1.50;12.50;;;;;;5117998;28;20581;-83
2022/12/13 00:28:33;;;;;;;21.90;14.43;;;1.40;16.50;;;;;;5098681;28;20178;-83
2022/12/13 00:31:00;;;;;;;26.47;15.50;;;1.50;15.90;;;;;;5098907;28;20167;-81
2022/12/13 00:33:27;;;;;;;26.73;17.73;;;1.60;16.40;;;;;;5098919;28;20178;-78
2022/12/13 00:35:53;;;;;;;22.07;15.50;;;1.80;13.60;;;;;;5116616;28;20224;-79
2022/12/13 00:38:19;;;;;;;24.97;15.87;;;2.10;10.30;;;;;;5116624;28;20686;-79
2022/12/13 00:40:44;;;;;;;18.70;13.27;;;1.80;10.00;;;;;;5098169;28;20178;-79
2022/12/13 00:43:10;;;;;;;19.27;12.10;;;1.80;10.30;;;;;;5116466;28;20175;-81
2022/12/13 00:45:37;;;;;;;17.60;11.83;;;1.70;9.60;;;;;;5097902;28;20228;-78
2022/12/13 00:48:03;;;;;;;17.63;11.10;;;1.70;10.70;;;;;;5115961;28;20171;-80
2022/12/13 00:50:30;;;;;;;17.57;11.80;;;1.50;10.10;;;;;;5114657;28;20163;-79
2022/12/13 00:52:55;;;;;;;20.63;12.37;;;1.40;11.60;;;;;;5118002;28;20194;-80
2022/12/13 00:55:21;;;;;;;17.97;12.27;;;1.40;11.30;;;;;;5116107;28;20683;-78
2022/12/13 00:57:46;;;;;;;17.13;10.37;;;1.40;11.20;;;;;;5116265;28;20695;-79
2022/12/13 01:00:12;;;;;;;16.60;10.97;;;1.50;10.40;;;;;;5106805;28;20189;-79
2022/12/13 01:02:39;;;;;;;15.07;10.07;;;1.50;9.00;;;;;;5126305;28;20179;-76
2022/12/13 01:05:04;;;;;;;17.17;11.27;;;1.40;4.50;;;;;;5116637;28;20182;-78
2022/12/13 01:07:33;;;;;;;16.23;10.23;;;1.50;2.30;;;;;;5098334;28;20259;-78
2022/12/13 01:09:59;;;;;;;15.97;10.07;;;1.30;1.50;;;;;;5116014;28;20152;-78
2022/12/13 01:12:25;;;;;;;16.57;11.07;;;1.20;3.20;;;;;;5116113;28;20182;-79
2022/12/13 01:14:51;;;;;;;13.73;9.90;;;1.10;4.60;;;;;;5115936;28;20174;-79
2022/12/13 01:17:17;;;;;;;16.07;10.57;;;1.10;7.10;;;;;;5119191;28;20171;-76
2022/12/13 01:19:42;;;;;;;17.47;10.27;;;1.10;6.80;;;;;;5129317;28;20183;-76
2022/12/13 01:22:10;;;;;;;14.67;9.97;;;1.10;6.40;;;;;;5102131;28;20261;-80
2022/12/13 01:24:42;;;;;;;16.60;10.40;;;1.10;6.10;;;;;;5096933;28;20258;-76
2022/12/13 01:27:10;;;;;;;18.07;10.93;;;1.00;7.70;;;;;;5115506;28;20230;-76
2022/12/13 01:29:36;;;;;;;14.33;9.87;;;1.10;8.80;;;;;;5115662;28;20238;-78
2022/12/13 01:32:02;;;;;;;16.30;10.47;;;1.10;7.40;;;;;;5115508;28;20221;-79
2022/12/13 01:34:28;;;;;;;15.10;10.43;;;1.00;6.80;;;;;;5114271;28;20166;-78
2022/12/13 01:36:55;;;;;;;15.93;10.23;;;1.00;5.60;;;;;;5115063;28;20206;-79
2022/12/13 01:39:21;;;;;;;14.07;9.20;;;1.00;7.70;;;;;;5097393;28;20186;-78
2022/12/13 01:41:58;;;;;;;14.87;10.00;;;1.00;7.70;;;;;;5096651;28;20220;-76
2022/12/13 01:44:54;;;;;;;16.20;10.20;;;0.90;6.20;;;;;;5115032;28;20166;-78
2022/12/13 01:47:39;;;;;;;14.37;9.43;;;0.90;6.10;;;;;;5115230;28;20214;-79
2022/12/13 01:50:10;;;;;;;15.57;10.43;;;0.80;4.20;;;;;;5115073;28;20167;-78
2022/12/13 01:52:38;;;;;;;15.40;9.90;;;0.80;3.90;;;;;;5115556;28;20174;-77
2022/12/13 01:55:06;;;;;;;12.47;9.03;;;0.90;3.50;;;;;;5096967;28;20552;-77
2022/12/13 01:57:35;;;;;;;15.83;10.83;;;0.80;1.00;;;;;;5114951;28;20167;-78
2022/12/13 02:00:02;;;;;;;16.20;10.33;;;0.90;1.30;;;;;;5115036;28;20696;-80
2022/12/13 02:02:28;;;;;;;13.37;8.80;;;0.80;1.00;;;;;;5114582;28;20167;-80
2022/12/13 02:05:31;;;;;;;14.33;9.33;;;0.80;1.00;;;;;;5114230;28;20185;-79
2022/12/13 02:07:58;;;;;;;16.07;10.43;;;0.80;1.00;;;;;;5113841;28;20202;-78
2022/12/13 02:10:25;;;;;;;14.93;9.87;;;0.80;1.00;;;;;;5114546;28;20647;-78
2022/12/13 02:12:51;;;;;;;13.43;9.10;;;0.80;1.00;;;;;;5114438;28;20175;-79
2022/12/13 02:15:18;;;;;;;18.40;10.43;;;0.70;1.00;;;;;;5114298;28;20190;-77
2022/12/13 02:17:54;;;;;;;13.97;8.60;;;0.70;1.00;;;;;;5114275;28;20705;-77
2022/12/13 02:20:47;;;;;;;13.17;8.60;;;0.60;1.00;;;;;;5113968;28;20516;-78
2022/12/13 02:23:33;;;;;;;16.43;9.40;;;0.60;1.00;;;;;;5113967;28;20183;-79
2022/12/13 02:26:20;;;;;;;14.57;9.23;;;0.50;1.00;;;;;;5112765;28;20198;-78
2022/12/13 02:29:03;;;;;;;13.60;9.10;;;0.50;1.00;;;;;;5114382;28;20174;-80
2022/12/13 02:31:49;;;;;;;14.87;8.10;;;0.50;1.00;;;;;;5114242;28;20171;-80
2022/12/13 02:34:15;;;;;;;14.80;9.63;;;0.40;1.00;;;;;;5096368;28;20653;-79
2022/12/13 02:36:46;;;;;;;15.67;9.30;;;0.50;1.00;;;;;;5114534;28;20182;-79
2022/12/13 02:39:24;;;;;;;16.23;10.60;;;0.40;1.00;;;;;;5095571;28;20226;-78
2022/12/13 02:41:55;;;;;;;13.50;9.13;;;0.40;1.00;;;;;;5116497;28;20171;-76
2022/12/13 02:44:45;;;;;;;14.03;9.80;;;0.40;1.00;;;;;;5118707;28;20163;-79
2022/12/13 02:47:16;;;;;;;13.27;9.00;;;0.40;1.00;;;;;;5116530;28;20229;-78
2022/12/13 02:49:47;;;;;;;14.03;9.63;;;0.40;1.00;;;;;;5114102;28;20194;-78
2022/12/13 02:52:17;;;;;;;17.37;10.27;;;0.40;1.00;;;;;;5114403;28;20167;-78
2022/12/13 02:54:42;;;;;;;13.43;9.07;;;0.30;1.00;;;;;;5113636;28;20159;-78
2022/12/13 02:57:27;;;;;;;14.63;10.23;;;0.40;1.00;;;;;;5114086;28;20567;-78
2022/12/13 02:59:52;;;;;;;14.83;9.70;;;0.40;1.00;;;;;;5112629;28;20171;-78
2022/12/13 03:02:38;;;;;;;15.53;9.73;;;0.40;1.00;;;;;;5112589;28;20239;-78
2022/12/13 03:08:21;;;;;;;13.00;8.90;;;0.40;1.00;;;;;;5113988;28;20614;-77
2022/12/13 03:11:09;;;;;;;14.50;9.57;;;0.40;1.00;;;;;;5095298;28;20178;-78
2022/12/13 03:13:58;;;;;;;13.77;9.00;;;0.30;1.00;;;;;;5112595;28;20173;-79
2022/12/13 03:16:39;;;;;;;14.47;9.33;;;0.30;1.00;;;;;;5101193;28;20251;-77
2022/12/13 03:19:08;;;;;;;16.57;9.97;;;0.20;1.00;;;;;;5121136;28;20194;-77
2022/12/13 03:21:39;;;;;;;14.37;10.03;;;0.10;1.00;;;;;;5101713;28;20235;-79
2022/12/13 03:24:06;;;;;;;14.47;9.70;;;0.20;1.00;;;;;;5114282;28;20196;-78
2022/12/13 03:26:36;;;;;;;12.97;9.93;;;0.10;1.00;;;;;;5113726;28;20573;-77
2022/12/13 03:29:05;;;;;;;15.70;9.53;;;0.10;1.00;;;;;;5113147;28;20653;-79
2022/12/13 03:31:30;;;;;;;12.00;8.77;;;0.10;1.00;;;;;;5112936;28;20220;-79
2022/12/13 03:33:56;;;;;;;11.37;8.33;;;0.10;1.00;;;;;;5098793;28;20179;-76
2022/12/13 03:36:22;;;;;;;14.47;8.60;;;0.10;1.00;;;;;;5126016;28;20195;-76
2022/12/13 03:38:51;;;;;;;13.57;8.97;;;0.00;1.00;;;;;;5113554;28;20217;-76
2022/12/13 03:41:30;;;;;;;12.00;8.70;;;0.10;1.00;;;;;;5113384;28;20174;-77
2022/12/13 03:44:06;;;;;;;14.33;9.20;;;0.20;1.00;;;;;;5111966;28;20170;-77
2022/12/13 03:46:32;;;;;;;11.80;8.43;;;0.10;1.00;;;;;;5113042;28;20247;-78
2022/12/13 03:48:58;;;;;;;15.20;8.97;;;0.10;1.00;;;;;;5095082;28;20183;-78
2022/12/13 03:51:23;;;;;;;13.03;8.60;;;0.20;1.00;;;;;;5112150;28;20173;-78
2022/12/13 03:53:49;;;;;;;12.80;8.87;;;0.20;1.00;;;;;;5115236;28;20572;-78
2022/12/13 03:56:15;;;;;;;15.93;9.37;;;0.20;1.00;;;;;;5115313;28;20210;-78
2022/12/13 03:58:43;;;;;;;12.87;9.17;;;0.20;1.00;;;;;;5112110;28;20177;-77
2022/12/13 04:01:13;;;;;;;13.07;8.57;;;0.20;1.00;;;;;;5112774;28;20643;-82
2022/12/13 04:03:40;;;;;;;12.50;8.57;;;0.10;1.00;;;;;;5112462;28;20167;-78
2022/12/13 04:06:07;;;;;;;15.20;9.27;;;0.10;1.00;;;;;;5096129;28;20198;-76
2022/12/13 04:08:34;;;;;;;16.17;9.60;;;0.10;1.00;;;;;;5120699;28;20167;-78
2022/12/13 04:13:31;;;;;;;12.43;8.80;;;0.10;1.00;;;;;;5100523;28;20209;-79
2022/12/13 04:13:45;;;;;;;14.17;9.07;;;0.00;1.00;;;;;;5115599;28;20650;-79
2022/12/13 04:16:11;;;;;;;14.67;8.93;;;0.00;1.00;;;;;;5113153;28;20221;-77
2022/12/13 04:18:36;;;;;;;14.67;9.50;;;0.00;1.00;;;;;;5112880;28;20624;-78
2022/12/13 04:21:03;;;;;;;14.57;9.43;;;0.00;1.00;;;;;;5113123;28;20193;-78
2022/12/13 04:23:29;;;;;;;15.03;10.83;;;0.00;1.00;;;;;;5113077;28;20164;-76
2022/12/13 04:25:54;;;;;;;15.57;9.40;;;0.00;1.00;;;;;;5114594;28;20200;-79
2022/12/13 04:28:20;;;;;;;15.50;10.97;;;0.00;1.00;;;;;;5116417;28;20181;-78
2022/12/13 04:30:45;;;;;;;16.27;9.93;;;0.00;1.00;;;;;;5116760;28;20220;-79
2022/12/13 04:33:11;;;;;;;14.17;9.60;;;0.00;1.00;;;;;;5116477;28;20547;-78
2022/12/13 04:35:37;;;;;;;15.37;10.20;;;0.00;1.00;;;;;;5116544;28;20175;-77
2022/12/13 04:38:02;;;;;;;14.53;10.30;;;-0.10;1.00;;;;;;5116493;28;20187;-78
2022/12/13 04:40:28;;;;;;;16.00;10.30;;;-0.10;1.00;;;;;;5098271;28;20633;-83
2022/12/13 04:42:54;;;;;;;15.50;10.43;;;-0.20;3.40;;;;;;5097858;28;20204;-82
2022/12/13 04:45:20;;;;;;;17.43;10.47;;;-0.20;4.70;;;;;;5116087;28;20695;-78
2022/12/13 04:47:46;;;;;;;18.73;11.27;;;-0.20;5.50;;;;;;5116492;28;20170;-77
2022/12/13 04:50:12;;;;;;;18.27;10.93;;;-0.20;6.20;;;;;;5116975;28;20179;-77
2022/12/13 04:52:38;;;;;;;16.03;10.27;;;-0.20;4.80;;;;;;5117744;28;20192;-77
2022/12/13 04:55:05;;;;;;;17.17;11.43;;;-0.20;5.60;;;;;;5116450;28;20190;-77
2022/12/13 04:57:30;;;;;;;16.30;10.93;;;-0.20;5.70;;;;;;5116248;28;20198;-78
2022/12/13 04:59:56;;;;;;;17.70;11.80;;;-0.20;4.90;;;;;;5098994;28;20670;-77
2022/12/13 05:02:22;;;;;;;16.63;11.17;;;-0.20;3.90;;;;;;5116965;28;20311;-80
2022/12/13 05:04:48;;;;;;;17.20;10.90;;;-0.20;1.00;;;;;;5115671;28;20524;-79
2022/12/13 05:07:14;;;;;;;17.83;11.33;;;-0.10;1.60;;;;;;5115835;28;20250;-78
2022/12/13 05:09:39;;;;;;;19.80;11.97;;;-0.10;1.00;;;;;;5115897;28;20582;-79
2022/12/13 05:12:05;;;;;;;17.73;11.23;;;-0.10;1.00;;;;;;5115508;28;20429;-78
2022/12/13 05:14:31;;;;;;;18.03;11.73;;;-0.10;1.00;;;;;;5096648;28;20167;-79
2022/12/13 05:16:58;;;;;;;15.43;10.73;;;-0.10;1.00;;;;;;5116694;28;20684;-79
2022/12/13 05:19:23;;;;;;;14.67;10.10;;;-0.20;1.00;;;;;;5118898;28;20166;-77
2022/12/13 05:21:49;;;;;;;18.30;11.87;;;-0.20;1.00;;;;;;5118519;28;20560;-78
2022/12/13 05:24:15;;;;;;;16.60;11.43;;;-0.20;1.00;;;;;;5118190;28;20626;-80
2022/12/13 05:26:41;;;;;;;17.50;10.87;;;-0.20;2.60;;;;;;5115982;28;20163;-78
2022/12/13 05:29:07;;;;;;;17.20;11.07;;;-0.20;4.00;;;;;;5116232;28;20244;-81
2022/12/13 05:31:33;;;;;;;15.77;10.60;;;-0.20;2.30;;;;;;5115680;28;20619;-82
2022/12/13 05:33:58;;;;;;;17.53;12.70;;;-0.10;1.00;;;;;;5115603;28;20744;-81
2022/12/13 05:36:24;;;;;;;15.13;10.27;;;-0.10;1.00;;;;;;5114477;28;20202;-76
2022/12/13 05:38:51;;;;;;;18.70;11.13;;;-0.10;1.00;;;;;;5115587;28;20198;-76
2022/12/13 05:41:21;;;;;;;15.90;9.97;;;-0.10;1.00;;;;;;5115300;28;20156;-77
2022/12/13 05:43:46;;;;;;;18.20;10.83;;;-0.10;1.00;;;;;;5115305;28;20278;-76
2022/12/13 05:46:12;;;;;;;16.23;10.27;;;-0.10;1.00;;;;;;5115178;28;20654;-77
2022/12/13 05:48:39;;;;;;;17.00;10.53;;;-0.20;1.00;;;;;;5115801;28;20167;-77
2022/12/13 05:51:04;;;;;;;17.87;12.03;;;-0.30;1.00;;;;;;5115577;28;20204;-77
2022/12/13 05:53:30;;;;;;;19.53;11.40;;;-0.30;1.00;;;;;;5115055;28;20159;-78
2022/12/13 05:56:05;;;;;;;14.77;10.80;;;0.00;1.00;;;;;;5114606;28;20666;-77
2022/12/13 05:58:31;;;;;;;17.03;11.87;;;-0.10;1.00;;;;;;5115388;28;20201;-78
2022/12/13 06:01:05;;;;;;;17.33;11.50;;;-0.20;1.00;;;;;;5115153;28;20198;-79
2022/12/13 06:03:31;;;;;;;15.37;11.20;;;-0.20;1.00;;;;;;5117161;28;20166;-79
2022/12/13 06:06:00;;;;;;;18.13;11.77;;;-0.20;1.00;;;;;;5115926;28;20194;-76
2022/12/13 06:08:26;;;;;;;15.87;11.60;;;-0.20;1.00;;;;;;5106496;28;20186;-76
2022/12/13 06:10:56;;;;;;;16.77;10.53;;;-0.20;1.00;;;;;;5113106;28;20179;-77
2022/12/13 06:13:22;;;;;;;17.60;11.17;;;-0.30;1.00;;;;;;5113681;28;20179;-78
2022/12/13 06:15:48;;;;;;;14.50;11.23;;;-0.30;1.00;;;;;;5119428;28;20179;-79
2022/12/13 06:18:15;;;;;;;20.17;12.53;;;-0.20;1.00;;;;;;5115806;28;20210;-81
2022/12/13 06:20:41;;;;;;;22.10;11.80;;;-0.20;1.00;;;;;;5118414;28;20163;-77
2022/12/13 06:23:07;;;;;;;16.43;10.90;;;-0.20;1.00;;;;;;5130351;28;20178;-76
2022/12/13 06:25:33;;;;;;;17.27;11.30;;;-0.30;1.00;;;;;;5118631;28;20215;-82
2022/12/13 06:28:01;;;;;;;15.27;11.17;;;-0.40;1.00;;;;;;5114880;28;20171;-77
2022/12/13 06:30:30;;;;;;;18.13;12.10;;;-0.40;1.00;;;;;;5115491;28;20183;-81
2022/12/13 06:32:56;;;;;;;19.47;12.33;;;-0.40;1.00;;;;;;5119811;28;20158;-77
2022/12/13 06:35:23;;;;;;;17.07;12.20;;;-0.50;3.20;;;;;;5115108;28;20171;-79
2022/12/13 06:37:52;;;;;;;17.87;11.93;;;-0.50;1.60;;;;;;5114213;28;20737;-79
2022/12/13 06:40:17;;;;;;;16.80;12.20;;;-0.50;2.30;;;;;;5115522;28;20185;-81
2022/12/13 06:42:43;;;;;;;16.87;12.40;;;-0.60;5.30;;;;;;5113998;28;20163;-79
2022/12/13 06:45:10;;;;;;;20.97;13.00;;;-0.60;7.60;;;;;;5114449;28;20246;-78
2022/12/13 06:47:36;;;;;;;20.47;12.97;;;-0.60;7.40;;;;;;5113648;28;20254;-78
2022/12/13 06:50:02;;;;;;;20.13;13.07;;;-0.60;7.30;;;;;;5095100;28;20202;-81
2022/12/13 06:52:29;;;;;;;17.23;12.37;;;-0.60;6.80;;;;;;5103361;28;20186;-78
2022/12/13 06:54:54;;;;;;;18.27;12.93;;;-0.60;9.20;;;;;;5104482;28;20238;-78
2022/12/13 06:57:20;;;;;;;19.00;12.07;;;-0.60;8.50;;;;;;5120056;28;20238;-78
2022/12/13 06:59:46;;;;;;;19.23;11.90;;;-0.70;6.30;;;;;;5112457;28;20646;-81
2022/12/13 07:02:12;;;;;;;16.13;11.73;;;-0.70;6.40;;;;;;5105624;27;20213;-79
2022/12/13 07:04:37;;;;;;;19.47;12.07;;;-0.80;6.50;;;;;;5110471;27;20192;-79
2022/12/13 07:07:03;;;;;;;20.10;12.07;;;-0.80;6.30;;;;;;5121138;27;20323;-77
2022/12/13 07:09:30;;;;;;;18.07;12.17;;;-0.80;7.20;;;;;;5096833;28;20656;-79
2022/12/13 07:11:56;;;;;;;20.03;12.57;;;-0.70;6.60;;;;;;5094807;28;20519;-78
2022/12/13 07:14:22;;;;;;;21.70;12.27;;;-0.70;6.60;;;;;;5090184;28;20311;-79
2022/12/13 07:16:47;;;;;;;18.27;10.77;;;-0.60;5.60;;;;;;5094786;28;20207;-79
2022/12/13 07:19:13;;;;;;;20.90;11.90;;;-0.70;4.00;;;;;;5113559;28;20162;-78
2022/12/13 07:21:40;;;;;;;20.67;12.57;;;-0.60;5.40;;;;;;5112956;28;20567;-81
2022/12/13 07:24:06;;;;;;;19.10;12.20;;;-0.70;4.70;;;;;;5096232;28;20754;-82
2022/12/13 07:26:31;;;;;;;19.27;12.77;;;-0.70;5.40;;;;;;5114099;28;20175;-83
2022/12/13 07:28:57;;;;;;;16.13;10.97;;;-0.60;6.10;;;;;;5113379;28;20193;-80
2022/12/13 07:31:24;;;;;;;19.07;12.23;;;-0.70;2.40;;;;;;5113280;28;20171;-79
2022/12/13 07:33:49;;;;;;;21.63;13.80;;;-0.70;1.20;;;;;;5113684;28;20167;-82
2022/12/13 07:36:21;;;;;;;17.50;11.87;;;-0.60;1.00;;;;;;5095081;28;20847;-81
2022/12/13 07:38:57;;;;;;;18.90;12.00;;;-0.50;2.80;;;;;;5113492;28;20210;-77
2022/12/13 07:41:24;;;;;;;20.03;12.63;;;-0.70;4.70;;;;;;5110244;28;20204;-79
2022/12/13 07:43:54;;;;;;;19.80;12.63;;;-0.80;6.70;;;;;;5111469;28;20260;-81
2022/12/13 07:46:20;;;;;;;18.57;11.57;;;-0.80;10.00;;;;;;5113233;28;20506;-79
2022/12/13 07:48:46;;;;;;;19.47;12.93;;;-0.80;8.80;;;;;;5112689;28;20181;-79
2022/12/13 07:51:12;;;;;;;18.37;12.60;;;-0.80;9.50;;;;;;5117322;28;20171;-79
2022/12/13 07:53:39;;;;;;;20.57;12.57;;;-0.80;10.20;;;;;;5097624;28;20182;-78
2022/12/13 07:56:10;;;;;;;18.10;12.53;;;-0.80;9.70;;;;;;5116586;28;20274;-80
2022/12/13 07:58:37;;;;;;;21.87;11.97;;;-0.80;7.20;;;;;;5101497;28;20246;-79
2022/12/13 08:01:06;;;;;;;25.03;14.17;;;-0.70;6.80;;;;;;5121693;28;20218;-77
2022/12/13 08:03:33;;;;;;;21.83;14.03;;;-0.80;11.10;;;;;;5119578;28;20278;-78
2022/12/13 08:06:04;;;;;;;24.90;14.73;;;-0.80;14.20;;;;;;5119331;28;20214;-77
2022/12/13 08:08:30;;;;;;;24.93;14.43;;;-0.80;17.70;;;;;;5118939;28;20182;-80
2022/12/13 08:11:03;;;;;;;20.97;14.47;;;-0.70;18.40;;;;;;5117094;28;20167;-77
2022/12/13 08:13:29;;;;;;;21.37;13.03;;;-0.70;20.10;;;;;;5119626;28;20205;-78
2022/12/13 08:16:02;;;;;;;22.17;13.87;;;-0.70;17.90;;;;;;5122487;28;20174;-79
2022/12/13 08:18:29;;;;;;;21.83;14.10;;;-0.80;18.30;;;;;;5106569;28;20175;-80
2022/12/13 08:20:59;;;;;;;20.23;13.47;;;-0.70;17.70;;;;;;5120750;28;20657;-79
2022/12/13 08:23:26;;;;;;;17.43;12.40;;;-0.60;12.10;;;;;;5102361;28;20182;-77
2022/12/13 08:25:53;;;;;;;21.93;13.30;;;-0.50;9.10;;;;;;5117263;28;20192;-79
2022/12/13 08:28:19;;;;;;;20.77;13.00;;;-0.40;8.60;;;;;;5117703;28;20170;-81
2022/12/13 08:30:46;;;;;;;20.70;12.17;;;-0.40;3.40;;;;;;5098638;28;20175;-83
2022/12/13 08:33:12;;;;;;;19.43;13.67;;;-0.30;1.00;;;;;;5098319;28;20167;-79
2022/12/13 08:35:38;;;;;;;21.60;12.83;;;-0.40;1.00;;;;;;5110996;28;20179;-80
2022/12/13 08:38:03;;;;;;;23.30;12.07;;;-0.30;1.00;;;;;;5102976;28;20222;-83
2022/12/13 08:40:29;;;;;;;19.67;13.57;;;-0.30;1.00;;;;;;5097136;28;20608;-79
2022/12/13 08:42:55;;;;;;;20.67;12.43;;;-0.40;1.00;;;;;;5115704;28;20175;-82
2022/12/13 08:45:22;;;;;;;21.63;13.30;;;-0.30;1.00;;;;;;5125159;28;20628;-82
2022/12/13 08:47:48;;;;;;;18.40;12.23;;;-0.20;1.00;;;;;;5126750;28;20167;-78
2022/12/13 08:50:15;;;;;;;21.73;13.80;;;-0.30;1.00;;;;;;5117389;28;20571;-79
2022/12/13 08:52:43;;;;;;;20.37;13.20;;;-0.40;1.00;;;;;;5116826;28;20653;-78
2022/12/13 08:55:13;;;;;;;25.17;14.17;;;-0.30;1.00;;;;;;5118049;28;20214;-81
2022/12/13 08:57:41;;;;;;;21.13;13.20;;;-0.30;1.20;;;;;;5100054;28;20226;-81
2022/12/13 09:00:10;;;;;;;21.37;13.20;;;-0.20;1.00;;;;;;5098385;28;20261;-78
2022/12/13 09:02:36;;;;;;;18.37;12.07;;;-0.20;1.00;;;;;;5116376;28;20171;-80
2022/12/13 09:05:02;;;;;;;19.27;12.37;;;-0.10;1.00;;;;;;5127846;28;20189;-84
2022/12/13 09:07:28;;;;;;;19.80;12.60;;;0.00;1.00;;;;;;5106689;28;20178;-79
2022/12/13 09:09:54;;;;;;;17.93;12.53;;;0.10;1.00;;;;;;5097952;28;20171;-83
2022/12/13 09:12:19;;;;;;;15.63;11.07;;;0.20;1.00;;;;;;5118954;28;20179;-82
2022/12/13 09:14:46;;;;;;;18.47;12.27;;;0.10;1.00;;;;;;5123274;28;20582;-79
2022/12/13 09:17:15;;;;;;;19.07;11.90;;;0.10;1.00;;;;;;5133627;28;20221;-79
2022/12/13 09:19:41;;;;;;;18.50;11.80;;;0.10;1.00;;;;;;5100472;28;20177;-79
2022/12/13 09:22:06;;;;;;;20.50;12.50;;;0.30;1.00;;;;;;5132782;28;20646;-80
2022/12/13 09:24:38;;;;;;;18.67;12.37;;;0.40;1.00;;;;;;5118933;28;20171;-78
2022/12/13 09:27:10;;;;;;;22.93;11.63;;;0.40;1.00;;;;;;5116924;28;20191;-79
2022/12/13 09:29:39;;;;;;;18.10;12.17;;;0.40;1.00;;;;;;5098735;28;20193;-80
2022/12/13 09:32:06;;;;;;;18.67;12.60;;;0.30;1.00;;;;;;5098533;28;20197;-80
2022/12/13 09:34:32;;;;;;;19.50;12.23;;;0.30;1.00;;;;;;5115091;28;20178;-79
2022/12/13 09:36:58;;;;;;;16.87;10.90;;;0.40;1.00;;;;;;5115135;28;20198;-79
2022/12/13 09:39:23;;;;;;;17.03;11.47;;;0.40;1.00;;;;;;5115398;28;20186;-79
2022/12/13 09:41:54;;;;;;;18.53;11.70;;;0.50;1.00;;;;;;5115401;28;20179;-82
2022/12/13 09:44:24;;;;;;;20.13;12.20;;;0.50;1.00;;;;;;5115046;28;20169;-79
2022/12/13 09:46:53;;;;;;;17.53;11.70;;;0.50;1.00;;;;;;5114864;28;20715;-80
2022/12/13 09:49:25;;;;;;;17.77;11.80;;;0.50;1.00;;;;;;5115471;28;20159;-77
2022/12/13 09:51:54;;;;;;;17.23;12.40;;;0.60;1.00;;;;;;5114875;28;20233;-78
2022/12/13 09:54:22;;;;;;;19.37;11.30;;;0.70;1.00;;;;;;5114759;28;20166;-80
2022/12/13 09:56:49;;;;;;;16.80;11.27;;;0.70;1.00;;;;;;5096425;28;20756;-79
2022/12/13 09:59:17;;;;;;;18.33;11.93;;;0.70;1.00;;;;;;5114321;28;20520;-80
2022/12/13 10:01:44;;;;;;;19.13;11.83;;;0.70;1.00;;;;;;5114276;28;20160;-78
2022/12/13 10:04:13;;;;;;;16.97;11.37;;;0.70;1.00;;;;;;5114447;28;20163;-80
2022/12/13 10:06:39;;;;;;;18.60;12.20;;;0.80;1.00;;;;;;5114847;28;20190;-80
2022/12/13 10:09:09;;;;;;;18.83;12.43;;;0.80;1.00;;;;;;5114380;28;20631;-78
2022/12/13 10:11:35;;;;;;;19.53;11.87;;;0.80;1.00;;;;;;5096484;28;20173;-80
2022/12/13 10:14:04;;;;;;;17.27;11.17;;;0.90;1.00;;;;;;5114196;28;20163;-78
2022/12/13 10:16:30;;;;;;;22.00;12.53;;;1.00;1.00;;;;;;5114601;28;20721;-78
2022/12/13 10:18:56;;;;;;;18.07;11.50;;;1.00;1.00;;;;;;5114643;28;20289;-78
2022/12/13 10:21:33;;;;;;;20.77;12.37;;;1.00;1.00;;;;;;5088025;28;20539;-79
2022/12/13 10:24:17;;;;;;;19.73;12.23;;;1.10;1.00;;;;;;5112466;28;20245;-81
2022/12/13 10:26:43;;;;;;;15.97;10.57;;;1.30;1.00;;;;;;5113191;28;20254;-80
2022/12/13 10:29:09;;;;;;;19.77;12.03;;;1.20;1.00;;;;;;5096291;28;20175;-82
2022/12/13 10:31:53;;;;;;;17.27;11.97;;;1.20;1.00;;;;;;5094622;27;20704;-79
2022/12/13 10:34:27;;;;;;;18.50;12.30;;;1.30;1.00;;;;;;5114470;27;20174;-81
2022/12/13 10:36:53;;;;;;;18.90;11.13;;;1.40;1.00;;;;;;5103804;27;20221;-82
2022/12/13 10:39:40;;;;;;;18.77;11.30;;;1.50;1.00;;;;;;5113755;28;20328;-82
2022/12/13 10:42:18;;;;;;;16.87;11.27;;;1.50;1.00;;;;;;5126476;27;20195;-80
2022/12/13 10:44:44;;;;;;;17.47;11.23;;;1.40;1.00;;;;;;5115816;28;20166;-82
2022/12/13 10:47:17;;;;;;;18.50;11.20;;;1.50;1.00;;;;;;5111986;28;20175;-80
2022/12/13 10:49:55;;;;;;;16.03;10.53;;;1.50;1.00;;;;;;5111395;27;20572;-80
2022/12/13 10:52:28;;;;;;;17.27;10.93;;;1.60;1.00;;;;;;5105372;28;20289;-80
2022/12/13 10:54:55;;;;;;;15.93;10.83;;;1.60;1.00;;;;;;5093146;28;20167;-80
2022/12/13 10:57:21;;;;;;;18.50;11.57;;;1.60;1.00;;;;;;5114891;28;20300;-82
2022/12/13 10:59:48;;;;;;;17.23;10.90;;;1.70;1.00;;;;;;5093372;28;20172;-78
2022/12/13 11:02:37;;;;;;;16.90;10.13;;;1.60;1.00;;;;;;5093857;28;20167;-80
2022/12/13 11:05:33;;;;;;;16.40;10.40;;;1.60;1.00;;;;;;5093333;28;20190;-79
2022/12/13 11:08:13;;;;;;;17.00;11.63;;;1.70;1.00;;;;;;5094310;28;20171;-78
2022/12/13 11:10:39;;;;;;;20.23;11.70;;;1.80;1.00;;;;;;5095090;28;20209;-82
2022/12/13 11:13:07;;;;;;;14.23;10.43;;;1.80;1.00;;;;;;5107230;28;20175;-77
2022/12/13 11:15:36;;;;;;;16.03;10.23;;;1.80;1.00;;;;;;5113524;28;20179;-80
2022/12/13 11:18:06;;;;;;;15.77;10.30;;;1.90;1.00;;;;;;5094243;28;20203;-80
2022/12/13 11:21:00;;;;;;;15.67;10.73;;;1.80;1.00;;;;;;5113688;28;20167;-80
2022/12/13 11:23:33;;;;;;;15.40;9.90;;;1.90;1.00;;;;;;5111471;28;20507;-79
2022/12/13 11:26:04;;;;;;;15.53;10.03;;;1.90;1.00;;;;;;5113662;28;20200;-81
2022/12/13 11:28:48;;;;;;;16.50;10.70;;;1.90;1.00;;;;;;5111985;28;20163;-82
2022/12/13 11:31:34;;;;;;;18.40;10.83;;;2.00;1.00;;;;;;5114445;28;20167;-82
2022/12/13 11:34:17;;;;;;;18.43;11.07;;;2.00;1.00;;;;;;5112981;28;20167;-80
2022/12/13 11:37:14;;;;;;;16.97;10.70;;;2.10;1.00;;;;;;5121992;28;20201;-80
2022/12/13 11:39:50;;;;;;;17.37;9.77;;;2.20;1.00;;;;;;5122128;28;20203;-81
2022/12/13 11:42:36;;;;;;;15.37;10.10;;;2.30;1.00;;;;;;5083797;28;20170;-82
2022/12/13 11:45:09;;;;;;;17.17;10.23;;;2.20;1.00;;;;;;5099282;28;20181;-80
2022/12/13 11:48:12;;;;;;;21.37;12.17;;;2.10;1.00;;;;;;5116900;28;20607;-84
2022/12/13 11:50:44;;;;;;;18.73;11.27;;;2.00;1.00;;;;;;5084743;28;20292;-78
2022/12/13 11:53:33;;;;;;;16.13;11.00;;;2.00;1.00;;;;;;5118035;28;20682;-79
2022/12/13 11:56:16;;;;;;;17.47;10.37;;;2.00;1.00;;;;;;5120452;28;20154;-80
2022/12/13 11:58:51;;;;;;;14.90;10.17;;;2.10;1.00;;;;;;5104072;28;20167;-79
2022/12/13 12:01:39;;;;;;;15.30;11.00;;;2.00;1.00;;;;;;5122179;27;20603;-78
2022/12/13 12:04:38;;;;;;;15.63;10.30;;;2.00;1.00;;;;;;5105518;27;20188;-79
2022/12/13 12:07:11;;;;;;;16.00;9.97;;;2.00;1.00;;;;;;5138480;27;20541;-80
2022/12/13 12:09:47;;;;;;;18.00;10.47;;;2.00;1.00;;;;;;5125764;27;20266;-79
2022/12/13 12:12:23;;;;;;;15.73;10.63;;;2.00;1.00;;;;;;5117437;28;20166;-79
2022/12/13 12:15:24;;;;;;;16.90;10.30;;;2.00;1.00;;;;;;5117765;28;20249;-79
2022/12/13 12:17:50;;;;;;;16.73;10.67;;;2.10;1.00;;;;;;5132499;27;20296;-77
2022/12/13 12:20:23;;;;;;;17.97;10.40;;;2.30;1.00;;;;;;5138641;27;20197;-77
2022/12/13 12:22:56;;;;;;;16.43;10.13;;;2.40;1.00;;;;;;5141985;27;20170;-78
2022/12/13 12:25:28;;;;;;;23.03;11.53;;;2.30;1.00;;;;;;5123655;27;20619;-76
2022/12/13 12:28:21;;;;;;;14.13;9.40;;;2.30;1.00;;;;;;5141504;27;20252;-78
2022/12/13 12:31:08;;;;;;;16.80;9.83;;;2.20;1.00;;;;;;5143202;27;20174;-78
2022/12/13 12:33:45;;;;;;;15.77;10.13;;;2.20;1.00;;;;;;5139164;27;20190;-79
2022/12/13 12:36:36;;;;;;;18.83;11.73;;;2.30;1.00;;;;;;5117430;28;20238;-77
2022/12/13 12:39:32;;;;;;;16.47;9.57;;;2.20;1.00;;;;;;5117363;28;20681;-79
2022/12/13 12:42:32;;;;;;;15.80;9.63;;;2.10;1.00;;;;;;5116850;28;20266;-80
2022/12/13 12:45:28;;;;;;;17.67;10.03;;;2.20;1.00;;;;;;5099922;28;20188;-78
2022/12/13 12:48:34;;;;;;;16.57;10.47;;;2.30;1.00;;;;;;5099990;28;20191;-76
2022/12/13 12:51:48;;;;;;;13.53;9.43;;;2.40;1.00;;;;;;5039262;28;20183;-76
2022/12/13 12:54:45;;;;;;;17.23;10.90;;;2.30;1.00;;;;;;5040170;28;20617;-79
2022/12/13 12:57:25;;;;;;;14.20;9.73;;;2.30;1.00;;;;;;5082703;28;20614;-77
2022/12/13 13:00:02;;;;;;;14.83;10.30;;;2.20;1.00;;;;;;5078843;28;20590;-78
2022/12/13 13:02:50;;;;;;;16.57;10.40;;;2.20;1.00;;;;;;5100383;28;20252;-78
2022/12/13 13:05:34;;;;;;;16.60;11.33;;;2.20;1.00;;;;;;5101123;28;20233;-80
2022/12/13 13:08:29;;;;;;;16.97;11.33;;;2.30;1.00;;;;;;5104953;27;20185;-77